Vista Mar, Puerto Rico
Current Conditions -  °F | °C
As of 3:50 AM on Thursday 27 Nov 2014 (Local Time) from TJBQ Reporting Station
Broken Clouds Broken Clouds  
Wind Chill: 73°   Ceiling: 9000
Heat Index: 73°   Visibility: 10mi
Dew Point: 70°   Wind: 7mph
Humidity: 88%   Direction: 100°E
Pressure: 29.98"   Gusts: NA
Location:  17.9714°N, 66.9064°W
Report Text: TJBQ 270750Z 10006KT 10SM SCT070 BKN090 23/21 A2998 RMK RWY 08 ATIS V
Loading
Personal Weather Stations






























Interactive Weather Map New forecast layout! Learn more

10-Day Weather Forecast

Advertisements
Track Severe Weather on mobile